Warren, PA

8:37 AM EST on January 27, 2015 (GMT -0500)
Chautauqua County-Jamestown | Change Station
CLOSE
Current Station
Airport
Location: Jamestown,
Elevation: 1722 ft
Nearby Weather Stations

Elev 1722 ft 42.15 °N, 79.26 °W | Updated 22 minutes ago

Snow
Snow
12 °F
Feels Like 2 °F
N
7
Wind Variable Wind from North

Today
High -- | Low -- °F
--% Chance of Precip.
Yesterday
High -- | Low -- °F
Precip. -- in
7:34 AM 5:25 PM
First Quarter, 54% visible
Pressure 29.87 in
Visibility 3.0 miles
Clouds Mostly Cloudy 2400 ft
Overcast 3200 ft
Windchill 2 °F
Dew Point 9 °F
Humidity 85%
Rainfall 0.00 in
Snow Depth Not available.
UV 0 out of 12
Pollen .10 out of 12
Air Quality Not available.
Flu Activity Not available.
METAR KJHW 271315Z 01006KT 3SM BKN024 OVC032 M11/M13 A2987 RMK AO1

More Conditions Fewer Conditions

Pressure 29.87 in
Visibility 3.0 miles
Clouds Mostly Cloudy 2400 ft
Overcast 3200 ft
Windchill 2 °F
Dew Point 9 °F
Humidity 85%
Rainfall 0.00 in
Snow Depth Not available.
UV 0 out of 12
Pollen .10 out of 12
Air Quality Not available.
Flu Activity Not available.
METAR KJHW 271315Z 01006KT 3SM BKN024 OVC032 M11/M13 A2987 RMK AO1

More Conditions Fewer Conditions

10-Day Weather Forecast

Almanac

Astronomy

Jan. 27, 2015 Rise Set
Actual Time
Civil Twilight
Nautical Twilight
Astronomical Twilight
Moon
Length of Visible Light
Length of Day
Tomorrow will be .
, % of the Moon is Illuminated

Today's Extremes

State Highs State Lows

Community

WunderPhotos

Upload Photos

1,790,614 photos uploaded!

WunderBlogs® & News

Nearby

Air Quality

  Air Quality AQ Index Pollutant
Not available.

Snow Depth

Station Depth Elevation

Earthquake Activity

City Distance Mag. Time & Date
Minimum magnitude displayed is 2.5.

Coastal Water Temperatures

Place Temperature

Nearby Weather Stations